Mackenzie, Canada
Current Conditions -  °F | °C
As of 7:00 PM on Monday 20 Oct 2014 (Local Time) from CYZY Reporting Station
Clear Clear  
Wind Chill:   Ceiling: Unl
Heat Index:   Visibility: 9mi
Dew Point:   Wind: 6mph
Humidity: 93%   Direction: 120°ESE
Pressure: 29.54"   Gusts: NA
Location:  55.33°N, 123.09°W
Report Text: CYZY 210200Z AUTO 12005KT 9SM CLR 07/06 A2954 RMK SLP021
Loading
Personal Weather Stations






























Interactive Weather Map
Tropical Storm Tracking
New forecast layout! Learn more

10-Day Weather Forecast

Advertisements
Track Severe Weather on mobile